createdAt,value
2019-02-09T00:00:37.956Z,14.38
2019-02-09T00:03:11.464Z,14.85
2019-02-09T00:05:42.842Z,11.08
2019-02-09T00:08:11.432Z,16.70
2019-02-09T00:10:42.628Z,12.43
2019-02-09T00:13:11.554Z,11.80
2019-02-09T00:15:40.540Z,13.85
2019-02-09T00:18:09.430Z,10.45
2019-02-09T00:20:44.160Z,12.23
2019-02-09T00:23:14.659Z,15.08
2019-02-09T00:25:43.538Z,10.13
2019-02-09T00:28:12.412Z,12.73
2019-02-09T00:30:47.281Z,11.90
2019-02-09T00:33:17.845Z,9.95
2019-02-09T00:35:46.846Z,10.35
2019-02-09T00:38:15.726Z,11.00
2019-02-09T00:40:46.888Z,13.00
2019-02-09T00:43:15.814Z,10.55
2019-02-09T00:45:48.554Z,12.18
2019-02-09T00:48:18.978Z,15.88
2019-02-09T00:50:47.925Z,14.87
2019-02-09T00:53:17.198Z,15.23
2019-02-09T00:55:55.402Z,11.07
2019-02-09T00:58:26.864Z,10.30
2019-02-09T01:00:55.236Z,13.55
2019-02-09T01:03:24.095Z,15.80
2019-02-09T01:05:53.121Z,9.65
2019-02-09T01:08:23.829Z,12.10
2019-02-09T01:10:54.648Z,12.80
2019-02-09T01:13:26.935Z,11.80
2019-02-09T01:15:58.036Z,11.53
2019-02-09T01:18:28.159Z,10.28
2019-02-09T01:21:00.379Z,15.65
2019-02-09T01:23:29.435Z,12.28
2019-02-09T01:26:03.650Z,13.70
2019-02-09T01:28:32.511Z,16.75
2019-02-09T01:31:03.921Z,18.87
2019-02-09T01:33:36.961Z,15.40
2019-02-09T01:36:05.846Z,19.40
2019-02-09T01:38:34.779Z,16.70
2019-02-09T01:41:03.725Z,13.65
2019-02-09T01:43:34.135Z,14.30
2019-02-09T01:46:04.625Z,12.03
2019-02-09T01:48:34.026Z,12.47
2019-02-09T01:51:03.070Z,11.75
2019-02-09T01:53:32.080Z,8.53
2019-02-09T01:56:00.941Z,12.15
2019-02-09T01:58:30.225Z,12.37
2019-02-09T02:00:59.045Z,8.20
2019-02-09T02:03:30.739Z,10.05
2019-02-09T02:06:06.715Z,16.37
2019-02-09T02:08:35.590Z,11.10
2019-02-09T02:11:04.557Z,9.00
2019-02-09T02:13:39.403Z,14.03
2019-02-09T02:16:08.263Z,17.57
2019-02-09T02:18:43.091Z,10.60
2019-02-09T02:21:11.979Z,13.78
2019-02-09T02:23:41.983Z,12.80
2019-02-09T02:26:13.550Z,17.50
2019-02-09T02:28:42.427Z,13.30
2019-02-09T02:31:11.298Z,13.10
2019-02-09T02:33:40.195Z,14.55
2019-02-09T02:36:09.193Z,10.40
2019-02-09T02:38:39.926Z,14.75
2019-02-09T02:41:08.848Z,16.62
2019-02-09T02:43:38.778Z,12.30
2019-02-09T02:46:07.742Z,16.00
2019-02-09T02:48:38.301Z,13.03
2019-02-09T02:51:13.722Z,17.20
2019-02-09T02:53:40.462Z,18.98
2019-02-09T02:56:11.054Z,11.65
2019-02-09T02:58:39.918Z,22.15
2019-02-09T03:01:13.100Z,17.57
2019-02-09T03:03:41.967Z,20.80
2019-02-09T03:06:11.190Z,21.70
2019-02-09T03:08:42.367Z,16.82
2019-02-09T03:11:12.851Z,15.63
2019-02-09T03:13:47.546Z,20.45
2019-02-09T03:16:18.050Z,17.15
2019-02-09T03:18:48.548Z,14.83
2019-02-09T03:21:22.950Z,22.02
2019-02-09T03:23:52.048Z,23.10
2019-02-09T03:26:20.902Z,23.62
2019-02-09T03:28:51.481Z,20.82
2019-02-09T03:31:20.363Z,22.52
2019-02-09T03:33:52.402Z,21.68
2019-02-09T03:36:21.265Z,20.82
2019-02-09T03:38:50.130Z,17.07
2019-02-09T03:41:24.517Z,18.87
2019-02-09T03:43:54.918Z,24.30
2019-02-09T03:46:27.113Z,20.68
2019-02-09T03:48:55.979Z,16.45
2019-02-09T03:51:24.852Z,19.23
2019-02-09T03:53:54.028Z,20.08
2019-02-09T03:56:23.113Z,18.63
2019-02-09T03:58:55.161Z,20.12
2019-02-09T04:01:25.760Z,20.05
2019-02-09T04:03:54.632Z,21.50
2019-02-09T04:06:25.178Z,20.65
2019-02-09T04:08:54.054Z,19.02
2019-02-09T04:11:23.285Z,22.27
2019-02-09T04:13:52.158Z,19.30
2019-02-09T04:16:23.313Z,27.65
2019-02-09T04:18:52.201Z,15.90
2019-02-09T04:21:23.812Z,19.50
2019-02-09T04:23:54.309Z,27.27
2019-02-09T04:26:41.383Z,19.15
2019-02-09T04:29:10.305Z,20.00
2019-02-09T04:31:39.161Z,23.00
2019-02-09T04:34:08.081Z,23.95
2019-02-09T04:36:38.557Z,24.52
2019-02-09T04:39:11.198Z,32.10
2019-02-09T04:41:42.203Z,24.70
2019-02-09T04:44:17.997Z,25.52
2019-02-09T04:46:49.202Z,17.70
2019-02-09T04:49:23.431Z,20.00
2019-02-09T04:51:52.318Z,30.37
2019-02-09T04:54:23.050Z,22.65
2019-02-09T04:56:53.607Z,21.48
2019-02-09T04:59:22.481Z,30.23
2019-02-09T05:01:55.889Z,27.50
2019-02-09T05:04:27.318Z,18.35
2019-02-09T05:06:56.252Z,21.87
2019-02-09T05:09:27.099Z,18.05
2019-02-09T05:11:57.590Z,14.58
2019-02-09T05:14:28.760Z,20.90
2019-02-09T05:17:00.206Z,21.23
2019-02-09T05:19:28.809Z,22.13
2019-02-09T05:21:59.458Z,16.97
2019-02-09T05:24:30.513Z,24.55
2019-02-09T05:27:01.069Z,21.87
2019-02-09T05:29:30.156Z,18.05
2019-02-09T05:32:01.792Z,16.87
2019-02-09T05:34:32.450Z,22.22
2019-02-09T05:37:01.437Z,20.12
2019-02-09T05:39:30.435Z,25.23
2019-02-09T05:41:59.319Z,15.70
2019-02-09T05:44:28.176Z,20.52
2019-02-09T05:47:00.879Z,14.58
2019-02-09T05:49:32.118Z,21.68
2019-02-09T05:52:00.407Z,16.17
2019-02-09T05:54:29.294Z,20.55
2019-02-09T05:57:01.236Z,18.37
2019-02-09T05:59:31.768Z,23.40
2019-02-09T06:02:24.415Z,26.23
2019-02-09T06:04:58.836Z,25.15
2019-02-09T06:07:29.415Z,23.35
2019-02-09T06:10:01.376Z,20.72
2019-02-09T06:12:30.347Z,25.80
2019-02-09T06:14:59.220Z,24.12
2019-02-09T06:17:28.364Z,26.27
2019-02-09T06:19:58.868Z,28.70
2019-02-09T06:22:30.671Z,31.17
2019-02-09T06:24:59.535Z,25.27
2019-02-09T06:27:29.424Z,28.67
2019-02-09T06:29:58.527Z,30.25
2019-02-09T06:32:28.555Z,28.05
2019-02-09T06:34:58.686Z,31.57
2019-02-09T06:39:59.345Z,39.27
2019-02-09T06:42:33.386Z,33.55
2019-02-09T06:45:04.231Z,30.82
2019-02-09T06:47:42.255Z,27.85
2019-02-09T06:50:15.161Z,38.63
2019-02-09T06:52:45.914Z,42.83
2019-02-09T06:55:15.495Z,38.38
2019-02-09T06:57:46.024Z,29.50
2019-02-09T07:00:19.869Z,33.88
2019-02-09T07:02:50.487Z,31.42
2019-02-09T07:05:19.971Z,29.65
2019-02-09T07:07:50.537Z,31.82
2019-02-09T07:10:30.305Z,40.03
2019-02-09T07:13:01.483Z,26.45
2019-02-09T07:15:31.533Z,29.32
2019-02-09T07:18:00.447Z,37.33
2019-02-09T07:20:33.629Z,30.82
2019-02-09T07:23:02.517Z,31.87
2019-02-09T07:25:34.307Z,36.80
2019-02-09T07:28:06.243Z,31.33
2019-02-09T07:30:35.493Z,36.73
2019-02-09T07:33:06.883Z,30.55
2019-02-09T07:35:36.930Z,30.70
2019-02-09T07:38:05.923Z,31.82
2019-02-09T07:40:34.821Z,37.05
2019-02-09T07:43:04.037Z,31.33
2019-02-09T07:45:34.236Z,35.47
2019-02-09T07:48:08.231Z,27.80
2019-02-09T07:50:37.091Z,23.22
2019-02-09T07:53:07.197Z,25.57
2019-02-09T07:55:37.045Z,30.57
2019-02-09T07:58:11.901Z,37.20
2019-02-09T08:00:40.760Z,26.20
2019-02-09T08:03:12.203Z,30.17
2019-02-09T08:05:42.150Z,39.13
2019-02-09T08:10:39.448Z,33.75
2019-02-09T08:13:08.966Z,29.00
2019-02-09T08:15:39.754Z,32.83
2019-02-09T08:18:12.074Z,29.95
2019-02-09T08:20:42.096Z,35.20
2019-02-09T08:25:43.391Z,32.95
2019-02-09T08:28:18.446Z,31.25
2019-02-09T08:30:49.227Z,32.15
2019-02-09T08:33:22.772Z,31.35
2019-02-09T08:35:51.646Z,30.23
2019-02-09T08:38:20.686Z,32.03
2019-02-09T08:40:52.036Z,33.60
2019-02-09T08:43:20.900Z,28.42
2019-02-09T08:45:49.778Z,32.20
2019-02-09T08:48:21.675Z,32.63
2019-02-09T08:50:56.330Z,31.23
2019-02-09T08:53:25.274Z,27.17
2019-02-09T08:55:57.958Z,30.97
2019-02-09T08:58:27.114Z,30.97
2019-02-09T09:00:56.018Z,28.60
2019-02-09T09:03:27.558Z,28.55
2019-02-09T09:05:58.054Z,29.05
2019-02-09T09:08:27.120Z,24.55
2019-02-09T09:10:55.987Z,29.18
2019-02-09T09:13:24.874Z,25.77
2019-02-09T09:15:55.552Z,26.80
2019-02-09T09:18:24.415Z,24.23
2019-02-09T09:20:57.767Z,25.75
2019-02-09T09:23:26.643Z,23.75
2019-02-09T09:25:55.523Z,26.52
2019-02-09T09:28:24.401Z,26.42
2019-02-09T09:30:58.447Z,30.70
2019-02-09T09:33:29.904Z,28.62
2019-02-09T09:35:58.784Z,26.68
2019-02-09T09:38:27.675Z,31.17
2019-02-09T09:40:56.622Z,23.73
2019-02-09T09:43:25.588Z,27.65
2019-02-09T09:45:56.266Z,26.10
2019-02-09T09:48:25.545Z,27.13
2019-02-09T09:50:56.045Z,48.02
2019-02-09T09:53:26.535Z,24.40
2019-02-09T09:55:55.433Z,29.82
2019-02-09T09:58:25.508Z,29.42
2019-02-09T10:03:24.566Z,23.02
2019-02-09T10:05:53.431Z,24.75
2019-02-09T10:08:25.093Z,31.90
2019-02-09T10:10:53.996Z,17.85
2019-02-09T10:13:26.763Z,20.43
2019-02-09T10:15:56.679Z,25.72
2019-02-09T10:18:31.208Z,21.20
2019-02-09T10:21:00.051Z,22.55
2019-02-09T10:23:28.923Z,25.30
2019-02-09T10:25:58.141Z,28.67
2019-02-09T10:28:26.983Z,26.13
2019-02-09T10:31:00.139Z,28.38
2019-02-09T10:33:27.539Z,24.75
2019-02-09T10:36:05.613Z,26.67
2019-02-09T10:38:34.741Z,31.50
2019-02-09T10:41:03.682Z,21.20
2019-02-09T10:43:35.173Z,33.88
2019-02-09T10:46:05.717Z,27.50
2019-02-09T10:48:34.596Z,28.00
2019-02-09T10:51:03.548Z,28.25
2019-02-09T10:53:35.474Z,22.77
2019-02-09T10:56:04.606Z,27.00
2019-02-09T10:58:35.083Z,19.67
2019-02-09T11:01:05.680Z,24.37
2019-02-09T11:03:38.005Z,26.57
2019-02-09T11:06:06.874Z,22.77
2019-02-09T11:08:38.872Z,25.52
2019-02-09T11:11:07.947Z,23.90
2019-02-09T11:13:39.216Z,25.85
2019-02-09T11:16:11.454Z,20.62
2019-02-09T11:18:40.295Z,21.57
2019-02-09T11:21:15.560Z,28.77
2019-02-09T11:23:43.918Z,23.98
2019-02-09T11:26:13.858Z,20.80
2019-02-09T11:28:42.899Z,24.27
2019-02-09T11:31:13.211Z,20.40
2019-02-09T11:33:43.696Z,25.52
2019-02-09T11:36:12.552Z,23.80
2019-02-09T11:38:41.435Z,23.67
2019-02-09T11:41:14.300Z,26.33
2019-02-09T11:43:45.518Z,27.22
2019-02-09T11:46:14.487Z,20.90
2019-02-09T11:48:44.982Z,26.90
2019-02-09T11:51:13.847Z,21.52
2019-02-09T11:56:12.218Z,26.23
2019-02-09T11:58:41.094Z,21.80
2019-02-09T12:01:09.973Z,23.98
2019-02-09T12:03:38.847Z,26.65
2019-02-09T12:06:09.658Z,24.57
2019-02-09T12:08:39.049Z,26.55
2019-02-09T12:11:09.860Z,26.05
2019-02-09T12:13:40.349Z,25.77
2019-02-09T12:16:12.839Z,26.25
2019-02-09T12:18:42.835Z,27.50
2019-02-09T12:21:11.727Z,26.05
2019-02-09T12:23:40.697Z,30.60
2019-02-09T12:26:12.447Z,34.20
2019-02-09T12:28:42.921Z,33.83
2019-02-09T12:31:11.985Z,20.37
2019-02-09T12:33:42.901Z,26.65
2019-02-09T12:38:47.785Z,28.32
2019-02-09T12:41:16.707Z,33.78
2019-02-09T12:43:45.589Z,23.60
2019-02-09T12:46:15.921Z,29.25
2019-02-09T12:48:44.812Z,30.60
2019-02-09T12:51:15.366Z,35.63
2019-02-09T12:53:44.255Z,23.25
2019-02-09T12:56:13.106Z,34.10
2019-02-09T12:58:45.155Z,32.85
2019-02-09T13:01:18.421Z,32.85
2019-02-09T13:03:52.203Z,22.55
2019-02-09T13:06:26.965Z,31.27
2019-02-09T13:08:57.996Z,32.93
2019-02-09T13:11:26.966Z,19.15
2019-02-09T13:14:03.952Z,27.80
2019-02-09T13:16:35.042Z,23.45
2019-02-09T13:19:03.986Z,26.82
2019-02-09T13:21:32.869Z,30.00
2019-02-09T13:24:02.978Z,21.95
2019-02-09T13:29:06.250Z,24.47
2019-02-09T13:31:37.084Z,30.65
2019-02-09T13:34:05.998Z,24.70
2019-02-09T13:36:36.818Z,27.87
2019-02-09T13:39:07.814Z,26.00
2019-02-09T13:41:38.330Z,27.00
2019-02-09T13:44:07.210Z,24.27
2019-02-09T13:46:36.410Z,31.73
2019-02-09T13:49:06.887Z,28.80
2019-02-09T13:51:35.984Z,29.20
2019-02-09T13:54:04.980Z,27.00
2019-02-09T13:56:36.972Z,17.20
2019-02-09T13:59:05.906Z,27.27
2019-02-09T14:01:34.778Z,34.08
2019-02-09T14:04:03.942Z,27.13
2019-02-09T14:06:34.877Z,30.80
2019-02-09T14:09:09.601Z,33.53
2019-02-09T14:11:37.704Z,32.23
2019-02-09T14:14:06.564Z,29.23
2019-02-09T14:16:38.830Z,31.85
2019-02-09T14:19:09.679Z,31.33
2019-02-09T14:25:22.080Z,33.92
2019-02-09T14:27:55.418Z,33.28
2019-02-09T14:30:25.351Z,33.90
2019-02-09T14:32:56.042Z,30.90
2019-02-09T14:35:30.375Z,27.35
2019-02-09T14:38:01.672Z,30.52
2019-02-09T14:40:38.590Z,28.23
2019-02-09T14:43:07.835Z,31.27
2019-02-09T14:45:43.244Z,27.60
2019-02-09T14:48:12.612Z,33.45
2019-02-09T14:50:41.554Z,38.00
2019-02-09T14:53:12.814Z,27.60
2019-02-09T14:55:42.042Z,28.25
2019-02-09T14:58:14.431Z,34.98
2019-02-09T15:00:45.074Z,34.55
2019-02-09T15:03:14.546Z,35.85
2019-02-09T15:05:43.396Z,39.53
2019-02-09T15:08:13.883Z,30.82
2019-02-09T15:10:42.829Z,30.97
2019-02-09T15:13:14.613Z,35.50
2019-02-09T15:15:45.359Z,29.77
2019-02-09T15:18:14.291Z,32.75
2019-02-09T15:20:44.785Z,28.80
2019-02-09T15:23:13.653Z,31.57
2019-02-09T15:25:42.516Z,31.65
2019-02-09T15:28:14.537Z,26.55
2019-02-09T15:30:48.417Z,23.52
2019-02-09T15:33:17.669Z,27.82
2019-02-09T15:35:46.519Z,32.13
2019-02-09T15:38:15.677Z,32.78
2019-02-09T15:40:44.589Z,27.30
2019-02-09T15:43:16.575Z,27.77
2019-02-09T15:45:45.429Z,23.42
2019-02-09T15:48:14.365Z,27.93
2019-02-09T15:50:43.228Z,29.52
2019-02-09T15:56:39.548Z,24.95
2019-02-09T15:59:11.471Z,30.68
2019-02-09T16:01:40.342Z,25.92
2019-02-09T16:04:09.198Z,23.40
2019-02-09T16:06:42.056Z,28.42
2019-02-09T16:09:11.055Z,29.02
2019-02-09T16:11:39.920Z,33.42
2019-02-09T16:14:11.121Z,30.55
2019-02-09T16:16:42.738Z,31.70
2019-02-09T16:19:11.787Z,27.93
2019-02-09T16:21:41.311Z,31.97
2019-02-09T16:24:10.203Z,22.75
2019-02-09T16:26:41.078Z,28.67
2019-02-09T16:29:10.138Z,28.27
2019-02-09T16:31:44.439Z,26.20
2019-02-09T16:34:13.388Z,27.15
2019-02-09T16:36:42.274Z,35.73
2019-02-09T16:39:11.370Z,32.60
2019-02-09T16:41:40.335Z,28.30
2019-02-09T16:44:12.626Z,33.92
2019-02-09T16:46:41.556Z,31.25
2019-02-09T16:49:10.422Z,32.23
2019-02-09T16:51:39.393Z,33.53
2019-02-09T16:54:08.277Z,24.05
2019-02-09T16:56:37.348Z,32.63
2019-02-09T16:59:06.254Z,34.13
2019-02-09T17:01:35.168Z,32.48
2019-02-09T17:04:05.076Z,30.57
2019-02-09T17:06:48.135Z,29.00
2019-02-09T17:09:19.615Z,30.30
2019-02-09T17:11:48.509Z,30.57
2019-02-09T17:14:19.715Z,31.77
2019-02-09T17:16:51.906Z,39.35
2019-02-09T17:19:20.791Z,29.82
2019-02-09T17:21:49.659Z,31.42
2019-02-09T17:24:21.502Z,25.60
2019-02-09T17:26:54.351Z,22.90
2019-02-09T17:29:23.213Z,30.90
2019-02-09T17:31:54.849Z,25.55
2019-02-09T17:34:26.706Z,29.60
2019-02-09T17:36:59.712Z,22.35
2019-02-09T17:39:31.161Z,25.88
2019-02-09T17:42:00.043Z,25.80
2019-02-09T17:44:30.569Z,32.03
2019-02-09T17:47:00.827Z,30.88
2019-02-09T17:49:29.815Z,26.70
2019-02-09T17:51:58.707Z,27.82
2019-02-09T17:54:28.145Z,30.05
2019-02-09T17:56:57.025Z,24.25
2019-02-09T17:59:26.403Z,21.77
2019-02-09T18:01:55.287Z,28.17
2019-02-09T18:04:24.363Z,30.32
2019-02-09T18:06:54.906Z,30.17
2019-02-09T18:09:23.814Z,31.95
2019-02-09T18:11:53.244Z,25.08
2019-02-09T18:14:23.831Z,32.70
2019-02-09T18:16:55.081Z,28.57
2019-02-09T18:19:24.210Z,24.43
2019-02-09T18:21:53.061Z,40.45
2019-02-09T18:24:22.203Z,29.80
2019-02-09T18:26:52.853Z,30.25
2019-02-09T18:29:21.729Z,28.62
2019-02-09T18:31:50.589Z,33.98
2019-02-09T18:34:19.471Z,23.55
2019-02-09T18:36:48.385Z,22.58
2019-02-09T18:39:24.041Z,18.67
2019-02-09T18:41:54.405Z,21.55
2019-02-09T18:44:23.253Z,26.33
2019-02-09T18:46:52.147Z,24.92
2019-02-09T18:49:21.021Z,18.32
2019-02-09T18:51:50.631Z,20.00
2019-02-09T18:54:19.507Z,22.10
2019-02-09T18:56:48.378Z,26.30
2019-02-09T18:59:17.247Z,18.30
2019-02-09T19:01:48.464Z,24.15
2019-02-09T19:04:17.351Z,22.50
2019-02-09T19:06:48.774Z,17.10
2019-02-09T19:09:17.657Z,25.80
2019-02-09T19:11:46.606Z,29.10
2019-02-09T19:14:15.482Z,27.10
2019-02-09T19:16:47.162Z,24.52
2019-02-09T19:19:16.250Z,22.73
2019-02-09T19:21:45.330Z,22.52
2019-02-09T19:24:16.177Z,33.65
2019-02-09T19:26:44.758Z,29.00
2019-02-09T19:29:15.271Z,24.72
2019-02-09T19:31:45.306Z,27.32
2019-02-09T19:34:18.442Z,26.42
2019-02-09T19:36:51.484Z,27.17
2019-02-09T19:39:21.476Z,27.13
2019-02-09T19:41:50.344Z,26.20
2019-02-09T19:44:21.492Z,27.82
2019-02-09T19:46:50.368Z,24.20
2019-02-09T19:49:21.410Z,27.35
2019-02-09T19:51:52.042Z,27.65
2019-02-09T19:54:26.628Z,21.68
2019-02-09T19:56:54.878Z,23.77
2019-02-09T19:59:23.818Z,28.00
2019-02-09T20:01:52.840Z,21.48
2019-02-09T20:04:21.698Z,24.47
2019-02-09T20:06:52.949Z,25.25
2019-02-09T20:09:22.027Z,24.57
2019-02-09T20:11:52.744Z,27.07
2019-02-09T20:14:21.609Z,26.10
2019-02-09T20:16:51.754Z,27.82
2019-02-09T20:19:22.267Z,25.10
2019-02-09T20:21:51.171Z,19.85
2019-02-09T20:24:20.047Z,21.68
2019-02-09T20:26:56.248Z,28.20
2019-02-09T20:29:26.867Z,27.98
2019-02-09T20:31:55.717Z,23.05
2019-02-09T20:34:26.243Z,23.47
2019-02-09T20:36:57.391Z,23.67
2019-02-09T20:39:26.000Z,29.52
2019-02-09T20:41:56.125Z,26.23
2019-02-09T20:44:26.971Z,21.77
2019-02-09T20:46:57.524Z,21.83
2019-02-09T20:49:26.400Z,20.45
2019-02-09T20:51:59.410Z,23.45
2019-02-09T20:54:31.095Z,26.12
2019-02-09T20:57:08.601Z,19.42
2019-02-09T20:59:39.295Z,28.83
2019-02-09T21:02:08.656Z,24.23
2019-02-09T21:04:37.621Z,23.80
2019-02-09T21:07:07.165Z,19.30
2019-02-09T21:09:39.465Z,27.77
2019-02-09T21:12:12.763Z,19.67
2019-02-09T21:14:41.633Z,16.15
2019-02-09T21:17:10.615Z,17.23
2019-02-09T21:19:41.130Z,26.82
2019-02-09T21:22:10.014Z,20.90
2019-02-09T21:24:45.982Z,21.95
2019-02-09T21:27:19.043Z,24.43
2019-02-09T21:29:47.907Z,18.67
2019-02-09T21:32:17.801Z,18.80
2019-02-09T21:34:46.716Z,18.42
2019-02-09T21:37:17.222Z,16.12
2019-02-09T21:39:50.926Z,14.05
2019-02-09T21:42:21.486Z,20.90
2019-02-09T21:44:53.240Z,19.37
2019-02-09T21:47:26.004Z,18.00
2019-02-09T21:49:55.634Z,17.57
2019-02-09T21:52:24.458Z,15.93
2019-02-09T21:54:53.330Z,22.30
2019-02-09T21:57:22.424Z,19.42
2019-02-09T21:59:52.912Z,21.62
2019-02-09T22:02:21.825Z,17.05
2019-02-09T22:04:50.704Z,19.00
2019-02-09T22:07:22.937Z,16.15
2019-02-09T22:09:51.807Z,18.90
2019-02-09T22:12:22.394Z,20.43
2019-02-09T22:14:53.235Z,16.12
2019-02-09T22:17:23.962Z,17.95
2019-02-09T22:19:53.158Z,22.00
2019-02-09T22:22:22.358Z,21.95
2019-02-09T22:24:51.236Z,22.37
2019-02-09T22:27:20.323Z,15.10
2019-02-09T22:29:49.254Z,24.75
2019-02-09T22:32:19.119Z,18.32
2019-02-09T22:34:49.766Z,18.60
2019-02-09T22:37:25.958Z,20.17
2019-02-09T22:39:56.394Z,18.40
2019-02-09T22:42:25.417Z,19.30
2019-02-09T22:44:54.283Z,16.32
2019-02-09T22:47:25.929Z,18.20
2019-02-09T22:49:54.479Z,16.25
2019-02-09T22:52:23.346Z,17.50
2019-02-09T22:54:53.805Z,13.35
2019-02-09T22:57:22.851Z,13.05
2019-02-09T22:59:56.395Z,20.72
2019-02-09T23:02:30.660Z,17.85
2019-02-09T23:04:59.801Z,18.40
2019-02-09T23:07:32.418Z,16.75
2019-02-09T23:10:01.371Z,15.78
2019-02-09T23:12:31.871Z,15.83
2019-02-09T23:15:00.759Z,15.30
2019-02-09T23:17:29.615Z,20.05
2019-02-09T23:19:58.489Z,14.98
2019-02-09T23:22:27.569Z,17.48
2019-02-09T23:24:56.445Z,17.87
2019-02-09T23:30:00.341Z,12.88
2019-02-09T23:32:29.620Z,18.42
2019-02-09T23:34:59.313Z,17.75
2019-02-09T23:37:28.225Z,16.60
2019-02-09T23:39:57.242Z,15.13
2019-02-09T23:42:26.161Z,13.72
2019-02-09T23:44:57.203Z,14.40
2019-02-09T23:47:30.962Z,11.95
2019-02-09T23:49:59.825Z,10.90
2019-02-09T23:52:28.907Z,16.97
2019-02-09T23:54:59.385Z,16.80
2019-02-09T23:57:31.559Z,14.83
